sensor_id;sensor_type;location;lat;lon;timestamp;temperature;humidity
66726;HTU21D;53638;51.062;5.804;2022-11-04T06:04:13;9.24;118.99
66726;HTU21D;53638;51.062;5.804;2022-11-04T06:06:40;9.30;118.99
66726;HTU21D;53638;51.062;5.804;2022-11-04T06:09:07;9.34;118.99
66726;HTU21D;53638;51.062;5.804;2022-11-04T06:11:34;9.38;118.99
66726;HTU21D;53638;51.062;5.804;2022-11-04T06:14:00;9.44;118.99
66726;HTU21D;53638;51.062;5.804;2022-11-04T06:16:26;9.46;118.99
66726;HTU21D;53638;51.062;5.804;2022-11-04T06:18:53;9.48;118.99
66726;HTU21D;53638;51.062;5.804;2022-11-04T12:15:34;15.19;118.99
66726;HTU21D;53638;51.062;5.804;2022-11-04T12:21:27;15.58;118.99
66726;HTU21D;53638;51.062;5.804;2022-11-04T12:24:54;15.47;118.99
66726;HTU21D;53638;51.062;5.804;2022-11-04T12:28:01;15.18;118.99
66726;HTU21D;53638;51.062;5.804;2022-11-04T12:31:50;14.92;118.99
66726;HTU21D;53638;51.062;5.804;2022-11-04T12:41:54;14.53;118.99
66726;HTU21D;53638;51.062;5.804;2022-11-04T13:21:53;14.64;118.99
66726;HTU21D;53638;51.062;5.804;2022-11-04T13:25:01;14.50;118.99
66726;HTU21D;53638;51.062;5.804;2022-11-04T13:27:35;14.42;118.99
66726;HTU21D;53638;51.062;5.804;2022-11-04T13:30:15;14.42;118.99
66726;HTU21D;53638;51.062;5.804;2022-11-04T13:38:11;14.41;118.99
66726;HTU21D;53638;51.062;5.804;2022-11-04T13:43:55;14.34;118.99
66726;HTU21D;53638;51.062;5.804;2022-11-04T13:46:32;14.25;118.99
66726;HTU21D;53638;51.062;5.804;2022-11-04T13:51:39;14.18;118.99
66726;HTU21D;53638;51.062;5.804;2022-11-04T13:54:24;14.23;118.99
66726;HTU21D;53638;51.062;5.804;2022-11-04T13:57:05;14.20;118.99
66726;HTU21D;53638;51.062;5.804;2022-11-04T13:59:32;14.14;118.99
66726;HTU21D;53638;51.062;5.804;2022-11-04T14:02:23;14.10;118.99
66726;HTU21D;53638;51.062;5.804;2022-11-04T14:04:53;14.15;118.99
66726;HTU21D;53638;51.062;5.804;2022-11-04T14:18:28;13.68;118.99
66726;HTU21D;53638;51.062;5.804;2022-11-04T14:44:56;12.82;118.99
66726;HTU21D;53638;51.062;5.804;2022-11-04T14:48:45;12.81;118.99
66726;HTU21D;53638;51.062;5.804;2022-11-04T14:51:40;12.73;118.99
66726;HTU21D;53638;51.062;5.804;2022-11-04T14:54:31;12.64;118.99
66726;HTU21D;53638;51.062;5.804;2022-11-04T14:57:43;12.59;118.99
66726;HTU21D;53638;51.062;5.804;2022-11-04T15:00:27;12.55;118.99
66726;HTU21D;53638;51.062;5.804;2022-11-04T15:10:17;12.41;118.99
66726;HTU21D;53638;51.062;5.804;2022-11-04T15:13:18;12.41;118.99
66726;HTU21D;53638;51.062;5.804;2022-11-04T15:15:47;12.40;118.99
66726;HTU21D;53638;51.062;5.804;2022-11-04T15:18:19;12.37;118.99
66726;HTU21D;53638;51.062;5.804;2022-11-04T15:20:52;12.33;118.99
66726;HTU21D;53638;51.062;5.804;2022-11-04T15:23:33;12.34;118.99
66726;HTU21D;53638;51.062;5.804;2022-11-04T15:26:02;12.35;118.99
66726;HTU21D;53638;51.062;5.804;2022-11-04T15:28:33;12.35;118.99
66726;HTU21D;53638;51.062;5.804;2022-11-04T15:33:35;12.34;118.99
66726;HTU21D;53638;51.062;5.804;2022-11-04T15:36:03;12.38;118.99
66726;HTU21D;53638;51.062;5.804;2022-11-04T15:38:31;12.43;118.99
66726;HTU21D;53638;51.062;5.804;2022-11-04T15:40:57;12.45;118.99
66726;HTU21D;53638;51.062;5.804;2022-11-04T15:43:45;12.47;118.99
66726;HTU21D;53638;51.062;5.804;2022-11-04T15:46:17;12.52;118.99
66726;HTU21D;53638;51.062;5.804;2022-11-04T15:48:59;12.57;118.99
66726;HTU21D;53638;51.062;5.804;2022-11-04T15:51:27;12.58;118.99
66726;HTU21D;53638;51.062;5.804;2022-11-04T15:54:01;12.60;118.99
66726;HTU21D;53638;51.062;5.804;2022-11-04T15:56:32;12.58;118.99
66726;HTU21D;53638;51.062;5.804;2022-11-04T15:59:00;12.55;118.99
66726;HTU21D;53638;51.062;5.804;2022-11-04T16:01:27;12.50;118.99
66726;HTU21D;53638;51.062;5.804;2022-11-04T16:03:58;12.47;118.99
66726;HTU21D;53638;51.062;5.804;2022-11-04T16:06:37;12.44;118.99
66726;HTU21D;53638;51.062;5.804;2022-11-04T16:09:15;12.38;118.99
66726;HTU21D;53638;51.062;5.804;2022-11-04T16:14:30;12.26;118.99
66726;HTU21D;53638;51.062;5.804;2022-11-04T16:16:56;12.21;118.99
66726;HTU21D;53638;51.062;5.804;2022-11-04T16:19:25;12.18;118.99
66726;HTU21D;53638;51.062;5.804;2022-11-04T16:22:03;12.13;118.99
66726;HTU21D;53638;51.062;5.804;2022-11-04T16:24:35;12.00;118.99
66726;HTU21D;53638;51.062;5.804;2022-11-04T16:27:02;11.85;118.99
66726;HTU21D;53638;51.062;5.804;2022-11-04T16:29:31;11.72;118.99
66726;HTU21D;53638;51.062;5.804;2022-11-04T16:34:34;11.51;118.99
66726;HTU21D;53638;51.062;5.804;2022-11-04T16:37:00;11.44;118.99
66726;HTU21D;53638;51.062;5.804;2022-11-04T16:39:32;11.34;118.99
66726;HTU21D;53638;51.062;5.804;2022-11-04T18:16:19;10.60;118.99
66726;HTU21D;53638;51.062;5.804;2022-11-04T18:18:45;10.60;118.99
66726;HTU21D;53638;51.062;5.804;2022-11-04T18:21:11;10.59;118.99
66726;HTU21D;53638;51.062;5.804;2022-11-04T18:23:37;10.58;118.99
66726;HTU21D;53638;51.062;5.804;2022-11-04T18:26:07;10.54;118.99
66726;HTU21D;53638;51.062;5.804;2022-11-04T18:28:36;10.50;118.99
66726;HTU21D;53638;51.062;5.804;2022-11-04T18:31:07;10.48;118.99
66726;HTU21D;53638;51.062;5.804;2022-11-04T18:33:33;10.44;118.99
66726;HTU21D;53638;51.062;5.804;2022-11-04T18:36:03;10.43;118.99
66726;HTU21D;53638;51.062;5.804;2022-11-04T18:38:29;10.45;118.99
66726;HTU21D;53638;51.062;5.804;2022-11-04T18:40:55;10.45;118.99
66726;HTU21D;53638;51.062;5.804;2022-11-04T18:43:22;10.43;118.99
66726;HTU21D;53638;51.062;5.804;2022-11-04T18:45:48;10.44;118.99
66726;HTU21D;53638;51.062;5.804;2022-11-04T18:48:15;10.43;118.99
66726;HTU21D;53638;51.062;5.804;2022-11-04T18:50:42;10.43;118.99
66726;HTU21D;53638;51.062;5.804;2022-11-04T18:53:08;10.42;118.99
66726;HTU21D;53638;51.062;5.804;2022-11-04T18:55:34;10.44;118.99
66726;HTU21D;53638;51.062;5.804;2022-11-04T18:58:00;10.44;118.99
66726;HTU21D;53638;51.062;5.804;2022-11-04T19:00:26;10.44;118.99
66726;HTU21D;53638;51.062;5.804;2022-11-04T19:02:53;10.45;118.99
66726;HTU21D;53638;51.062;5.804;2022-11-04T19:05:19;10.46;118.99
66726;HTU21D;53638;51.062;5.804;2022-11-04T19:07:45;10.45;118.99
66726;HTU21D;53638;51.062;5.804;2022-11-04T19:10:11;10.46;118.99
66726;HTU21D;53638;51.062;5.804;2022-11-04T19:12:38;10.48;118.99
66726;HTU21D;53638;51.062;5.804;2022-11-04T19:15:22;10.46;118.99
66726;HTU21D;53638;51.062;5.804;2022-11-04T19:17:49;10.48;118.99
66726;HTU21D;53638;51.062;5.804;2022-11-04T19:20:15;10.49;118.99
66726;HTU21D;53638;51.062;5.804;2022-11-04T19:22:41;10.51;118.99
66726;HTU21D;53638;51.062;5.804;2022-11-04T19:25:09;10.52;118.99
66726;HTU21D;53638;51.062;5.804;2022-11-04T19:27:35;10.54;118.99
66726;HTU21D;53638;51.062;5.804;2022-11-04T19:30:01;10.55;118.99
66726;HTU21D;53638;51.062;5.804;2022-11-04T19:32:27;10.56;118.99
66726;HTU21D;53638;51.062;5.804;2022-11-04T19:34:52;10.54;118.99
66726;HTU21D;53638;51.062;5.804;2022-11-04T19:37:18;10.54;118.99
66726;HTU21D;53638;51.062;5.804;2022-11-04T19:39:44;10.56;118.99
66726;HTU21D;53638;51.062;5.804;2022-11-04T19:42:11;10.56;118.99
66726;HTU21D;53638;51.062;5.804;2022-11-04T19:44:55;10.55;118.99
66726;HTU21D;53638;51.062;5.804;2022-11-04T19:47:21;10.50;118.99
66726;HTU21D;53638;51.062;5.804;2022-11-04T19:49:47;10.46;118.99
66726;HTU21D;53638;51.062;5.804;2022-11-04T19:52:13;10.40;118.99
66726;HTU21D;53638;51.062;5.804;2022-11-04T19:54:39;10.35;118.99
66726;HTU21D;53638;51.062;5.804;2022-11-04T19:57:05;10.33;118.99
66726;HTU21D;53638;51.062;5.804;2022-11-04T19:59:31;10.30;118.99
66726;HTU21D;53638;51.062;5.804;2022-11-04T20:01:57;10.29;118.99
66726;HTU21D;53638;51.062;5.804;2022-11-04T20:04:23;10.30;118.99
66726;HTU21D;53638;51.062;5.804;2022-11-04T20:06:49;10.27;118.99
66726;HTU21D;53638;51.062;5.804;2022-11-04T20:09:15;10.24;118.99
66726;HTU21D;53638;51.062;5.804;2022-11-04T20:11:41;10.20;118.99
66726;HTU21D;53638;51.062;5.804;2022-11-04T20:14:27;10.15;118.99
66726;HTU21D;53638;51.062;5.804;2022-11-04T20:16:54;10.12;118.99
66726;HTU21D;53638;51.062;5.804;2022-11-04T20:19:20;10.06;118.99
66726;HTU21D;53638;51.062;5.804;2022-11-04T20:21:46;10.04;118.99
66726;HTU21D;53638;51.062;5.804;2022-11-04T20:24:12;9.98;118.99
66726;HTU21D;53638;51.062;5.804;2022-11-04T20:26:40;9.94;118.99
66726;HTU21D;53638;51.062;5.804;2022-11-04T20:29:09;9.86;118.99
66726;HTU21D;53638;51.062;5.804;2022-11-04T20:31:36;9.82;118.99
66726;HTU21D;53638;51.062;5.804;2022-11-04T20:34:06;9.75;118.99
66726;HTU21D;53638;51.062;5.804;2022-11-04T20:36:34;9.70;118.99
66726;HTU21D;53638;51.062;5.804;2022-11-04T20:39:04;9.64;118.99
66726;HTU21D;53638;51.062;5.804;2022-11-04T20:41:31;9.56;118.99
66726;HTU21D;53638;51.062;5.804;2022-11-04T20:43:57;9.50;118.99
66726;HTU21D;53638;51.062;5.804;2022-11-04T20:46:26;9.47;118.99
66726;HTU21D;53638;51.062;5.804;2022-11-04T20:48:54;9.44;118.99
66726;HTU21D;53638;51.062;5.804;2022-11-04T20:51:23;9.41;118.99
66726;HTU21D;53638;51.062;5.804;2022-11-04T20:53:49;9.39;118.99
66726;HTU21D;53638;51.062;5.804;2022-11-04T20:56:23;9.36;118.99
66726;HTU21D;53638;51.062;5.804;2022-11-04T20:58:49;9.27;118.99
66726;HTU21D;53638;51.062;5.804;2022-11-04T21:01:18;9.22;118.99
66726;HTU21D;53638;51.062;5.804;2022-11-04T21:03:46;9.19;118.99
66726;HTU21D;53638;51.062;5.804;2022-11-04T21:06:12;9.15;118.99
66726;HTU21D;53638;51.062;5.804;2022-11-04T21:08:38;9.12;118.99
66726;HTU21D;53638;51.062;5.804;2022-11-04T21:11:05;9.12;118.99
66726;HTU21D;53638;51.062;5.804;2022-11-04T21:13:32;9.09;118.99
66726;HTU21D;53638;51.062;5.804;2022-11-04T21:15:59;9.05;118.99
66726;HTU21D;53638;51.062;5.804;2022-11-04T21:18:26;9.02;118.99
66726;HTU21D;53638;51.062;5.804;2022-11-04T21:20:53;8.98;118.99
66726;HTU21D;53638;51.062;5.804;2022-11-04T21:23:20;8.95;118.99
66726;HTU21D;53638;51.062;5.804;2022-11-04T21:25:55;8.93;118.99
66726;HTU21D;53638;51.062;5.804;2022-11-04T21:28:22;8.90;118.99
66726;HTU21D;53638;51.062;5.804;2022-11-04T21:30:52;8.86;118.99
66726;HTU21D;53638;51.062;5.804;2022-11-04T21:33:18;8.80;118.99
66726;HTU21D;53638;51.062;5.804;2022-11-04T21:35:45;8.77;118.99
66726;HTU21D;53638;51.062;5.804;2022-11-04T21:38:15;8.75;118.99
66726;HTU21D;53638;51.062;5.804;2022-11-04T21:40:42;8.73;118.99
66726;HTU21D;53638;51.062;5.804;2022-11-04T21:43:09;8.70;118.99
66726;HTU21D;53638;51.062;5.804;2022-11-04T21:45:37;8.70;118.99
66726;HTU21D;53638;51.062;5.804;2022-11-04T21:48:03;8.70;118.99
66726;HTU21D;53638;51.062;5.804;2022-11-04T21:50:29;8.65;118.99
66726;HTU21D;53638;51.062;5.804;2022-11-04T21:52:56;8.62;118.99
66726;HTU21D;53638;51.062;5.804;2022-11-04T21:55:23;8.61;118.99
66726;HTU21D;53638;51.062;5.804;2022-11-04T21:57:49;8.56;118.99
66726;HTU21D;53638;51.062;5.804;2022-11-04T22:00:15;8.55;118.99
66726;HTU21D;53638;51.062;5.804;2022-11-04T22:02:41;8.51;118.99
66726;HTU21D;53638;51.062;5.804;2022-11-04T22:05:09;8.51;118.99
66726;HTU21D;53638;51.062;5.804;2022-11-04T22:07:37;8.50;118.99
66726;HTU21D;53638;51.062;5.804;2022-11-04T22:10:22;8.50;118.99
66726;HTU21D;53638;51.062;5.804;2022-11-04T22:12:48;8.48;118.99
66726;HTU21D;53638;51.062;5.804;2022-11-04T22:15:15;8.45;118.99
66726;HTU21D;53638;51.062;5.804;2022-11-04T22:18:01;8.44;118.99
66726;HTU21D;53638;51.062;5.804;2022-11-04T22:20:27;8.44;118.99
66726;HTU21D;53638;51.062;5.804;2022-11-04T22:22:53;8.42;118.99
66726;HTU21D;53638;51.062;5.804;2022-11-04T22:25:19;8.38;118.99
66726;HTU21D;53638;51.062;5.804;2022-11-04T22:27:45;8.39;118.99
66726;HTU21D;53638;51.062;5.804;2022-11-04T22:30:11;8.39;118.99
66726;HTU21D;53638;51.062;5.804;2022-11-04T22:32:37;8.42;118.99
66726;HTU21D;53638;51.062;5.804;2022-11-04T22:35:03;8.45;118.99
66726;HTU21D;53638;51.062;5.804;2022-11-04T22:37:29;8.47;118.99
66726;HTU21D;53638;51.062;5.804;2022-11-04T22:39:55;8.51;118.99
66726;HTU21D;53638;51.062;5.804;2022-11-04T22:42:20;8.55;118.99
66726;HTU21D;53638;51.062;5.804;2022-11-04T22:44:46;8.57;118.99
66726;HTU21D;53638;51.062;5.804;2022-11-04T22:47:12;8.59;118.99
66726;HTU21D;53638;51.062;5.804;2022-11-04T22:49:38;8.61;118.99
66726;HTU21D;53638;51.062;5.804;2022-11-04T22:52:04;8.66;118.99
66726;HTU21D;53638;51.062;5.804;2022-11-04T22:54:30;8.72;118.99
66726;HTU21D;53638;51.062;5.804;2022-11-04T22:56:55;8.77;118.99
66726;HTU21D;53638;51.062;5.804;2022-11-04T22:59:22;8.79;118.99
66726;HTU21D;53638;51.062;5.804;2022-11-04T23:01:47;8.83;118.99
66726;HTU21D;53638;51.062;5.804;2022-11-04T23:04:13;8.83;118.99
66726;HTU21D;53638;51.062;5.804;2022-11-04T23:06:40;8.85;118.99
66726;HTU21D;53638;51.062;5.804;2022-11-04T23:09:06;8.87;118.99
66726;HTU21D;53638;51.062;5.804;2022-11-04T23:11:32;8.90;118.99
66726;HTU21D;53638;51.062;5.804;2022-11-04T23:14:19;8.90;118.99
66726;HTU21D;53638;51.062;5.804;2022-11-04T23:17:21;8.94;118.99
66726;HTU21D;53638;51.062;5.804;2022-11-04T23:20:12;8.94;118.99
66726;HTU21D;53638;51.062;5.804;2022-11-04T23:22:38;8.77;118.99
66726;HTU21D;53638;51.062;5.804;2022-11-04T23:25:24;8.66;118.99
66726;HTU21D;53638;51.062;5.804;2022-11-04T23:27:53;8.62;118.99
66726;HTU21D;53638;51.062;5.804;2022-11-04T23:30:41;8.62;118.99
66726;HTU21D;53638;51.062;5.804;2022-11-04T23:33:12;8.63;118.99
66726;HTU21D;53638;51.062;5.804;2022-11-04T23:35:47;8.66;118.99
66726;HTU21D;53638;51.062;5.804;2022-11-04T23:38:34;8.66;118.99
66726;HTU21D;53638;51.062;5.804;2022-11-04T23:41:04;8.65;118.99
66726;HTU21D;53638;51.062;5.804;2022-11-04T23:43:49;8.67;118.99
66726;HTU21D;53638;51.062;5.804;2022-11-04T23:46:15;8.62;118.99
66726;HTU21D;53638;51.062;5.804;2022-11-04T23:49:00;8.64;118.99
66726;HTU21D;53638;51.062;5.804;2022-11-04T23:51:32;8.64;118.99
66726;HTU21D;53638;51.062;5.804;2022-11-04T23:54:16;8.65;118.99
66726;HTU21D;53638;51.062;5.804;2022-11-04T23:57:01;8.67;118.99
66726;HTU21D;53638;51.062;5.804;2022-11-04T23:59:46;8.70;118.99
